x

Southern Lake Huron (45149) Wave Buoy

10:00pm - Thu 21st Aug 2014 All times are CDT. -5 hours from GMT.

  • Sig Wave height 0.7ft
  • Peak Period 3s
  • Wind
    4mph
  • Air Temp 67°f
  • Sea Pressure 1015.8mb
  • Southern Lake Huron
  • Southern Lake Huron

More Historic Weather Station data

Upgrade to MSW Pro to gain access to the past 30 days of data for over 8000 Wavebouys and Weather Stations around the globe.

Join Pro

Comparision Forecast

View Surf forecast
   
Thu 08/21 10:00pm 0.7ft 3s 4
mph
1015.8mb 67f
9:00pm 1ft 3s 4
mph
1015.5mb 67f
8:00pm 1ft 3s 9 11 mph 1015.1mb 67f
7:00pm 1.3ft 3s 11
mph
1015.2mb 66f
6:00pm 1ft 2s 13 16 mph 1015.4mb 66f
5:00pm 0.7ft 3s 11 13 mph 1015.2mb 67f
4:00pm 0.7ft 3s 9 11 mph 1014.9mb 67f
3:00pm 0.7ft 3s 4 7 mph 1015.2mb 68f
2:00pm 0.7ft 3s 4 7 mph 1015.8mb 67f
1:00pm 1ft 4s 4
mph
1015.7mb 67f
12:00pm 1ft 3s 2 4 mph 1016mb 67f
11:00am 1ft 3s 2 4 mph 1016mb 66f
10:00am 1ft 3s 7 9 mph 1016.1mb 65f
9:00am 1.3ft 3s 7 9 mph 1015.7mb 65f
8:00am 1.3ft 3s 7 9 mph 1015.7mb 65f
7:00am 1.6ft 3s 9 11 mph 1015.5mb 65f
6:00am 1.6ft 3s 11 18 mph 1014.7mb 66f
5:00am 1ft 2s 16 18 mph 1014.2mb 65f
4:00am 0.3ft 2s 11 13 mph 1013.6mb 66f
3:00am 0.3ft 2s 9
mph
1013.3mb 67f
2:00am 0.3ft 2s 7 9 mph 1013.3mb 67f
1:00am 0.7ft 2s 7 9 mph 1013.7mb 67f
12:00am  -  5s 9 11 mph 1013.6mb 67f
Wed 08/20 11:00pm  -  3s 4 7 mph 1013.3mb 68f
10:00pm  -  3s 4
mph
1012.8mb 67f
9:00pm  -  4s  -  2 mph 1012.4mb 68f
8:00pm  -  3s 2 4 mph 1011.9mb 67f
7:00pm  -  3s 2
mph
1011.8mb 68f
6:00pm  -  2s 7 9 mph 1011.9mb 68f
5:00pm  -  2s 4 7 mph 1011.1mb 69f
4:00pm 0.3ft 2s 4 7 mph 1011.3mb 69f
3:00pm 0.3ft 2s 4 7 mph 1011.1mb 69f
2:00pm 0.3ft 2s 2
mph
1010.6mb 69f
1:00pm 0.3ft 2s 2 4 mph 1010.7mb 69f
12:00pm 0.7ft 2s 4 7 mph 1010.8mb 68f
11:00am 0.7ft 2s 4
mph
1010.6mb 68f
10:00am 0.7ft 2s 4 7 mph 1010.5mb 67f
9:00am 0.7ft 3s 7 9 mph 1010.4mb 67f
8:00am 1ft 3s 7
mph
1010.3mb 66f
7:00am 1ft 3s 7 9 mph 1009.9mb 66f
6:00am 1ft 3s 9 11 mph 1009.5mb 66f
5:00am 1.3ft 3s 9 11 mph 1009mb 67f
4:00am 1.3ft 3s 9 11 mph 1008.7mb 66f
3:00am 1.6ft 3s 9 11 mph 1008.8mb 66f
2:00am 1.3ft 3s 11 13 mph 1008.5mb 66f
1:00am 1ft 2s 13 16 mph 1008.9mb 66f
12:00am 1.3ft 3s 11 13 mph 1009mb 66f
Tue 08/19 11:00pm 1.3ft 4s 11 13 mph 1008.8mb 66f
10:00pm 1.6ft 4s 11 13 mph 1008.9mb 67f
9:00pm 1.6ft 3s 13 16 mph 1008.5mb 67f
8:00pm 1.6ft 3s 11 13 mph 1008.1mb 66f
7:00pm 1.6ft 3s 13 20 mph 1007.7mb 66f
6:00pm 1.3ft 3s 16 18 mph 1007.5mb 70f
5:00pm 1.3ft 3s 11 13 mph 1007.7mb 70f
4:00pm 1.3ft 3s 11 13 mph 1007.8mb 69f
3:00pm 1.3ft 3s 9 11 mph 1007.9mb 69f
2:00pm 1.6ft 3s 9 11 mph 1008.4mb 69f
1:00pm 2ft 4s 13 16 mph 1008.4mb 69f
12:00pm 2ft 3s 18 22 mph 1008mb 68f
11:00am 2ft 3s 16 18 mph 1009.6mb 67f
10:00am 2ft 3s 16 18 mph 1010.2mb 65f
9:00am 2ft 3s 16 18 mph 1010.1mb 64f
8:00am 2ft 4s 13 16 mph 1010.3mb 63f
7:00am 2ft 4s 13 16 mph 1010.3mb 64f
6:00am 2.5ft 4s 18 20 mph 1009.8mb 64f
5:00am 1.6ft 3s 18 20 mph 1010.1mb 64f
4:00am 1.6ft 3s 16 18 mph 1010.2mb 64f
3:00am 1.3ft 3s 13 16 mph 1010.4mb 65f
2:00am 1ft 2s 13 16 mph 1010.5mb 66f
1:00am 0.7ft 3s 11 13 mph 1010.6mb 66f
12:00am 0.7ft 3s 9
mph
1011.1mb 66f
Mon 08/18 11:00pm 1ft 3s 7 9 mph 1011.4mb 66f
10:00pm 1ft 3s 7
mph
1011.4mb 66f
9:00pm  -   -  7
mph
1011.5mb 66f
8:00pm 1ft 3s 7 9 mph 1011.4mb 65f
7:00pm 0.7ft 2s 11
mph
1011.5mb 65f
6:00pm 0.7ft 2s 11
mph
1011.6mb 66f
5:00pm 0.3ft 2s 9
mph
1012.3mb 66f
4:00pm 0.3ft 3s 9
mph
1012.8mb 66f
3:00pm 0.3ft 3s 7 9 mph 1012.9mb 66f
2:00pm 0.3ft 2s 7 9 mph 1013.4mb 65f
1:00pm 0.7ft 2s 4
mph
1013.9mb 65f
12:00pm 0.7ft 2s 2
mph
1014mb 64f
11:00am 0.7ft 2s 2 7 mph 1014.8mb 63f
10:00am 0.7ft 3s 9 11 mph 1014.8mb 62f
9:00am 1ft 3s 7 9 mph 1015.2mb 61f
8:00am 1ft 3s 9 11 mph 1015.6mb 61f
7:00am 1ft 3s 9
mph
1015.5mb 61f
6:00am 1ft 3s 4 7 mph 1015.5mb 61f
5:00am 1ft 3s 7 9 mph 1014.5mb 62f